Portada
METAR-TAF:

METAR-TAF

Aeroports :

Bhubaneswar, Índia

latitud: 20-14-40N, longitud: 85-49-04E, altitud: 45 m

Observació

L'informe es va fer fa 20 minuts, a les 20:00 UTC
Vent 2 kt del Sud/Sud-Est
Temperatura 26°C
Humitat 100%
Pressió 1011 hPa
Visibilitat: 3000 m
Escasses núvols a una alçada de 1800 ft
calitja

METAR: VEBS 212000Z 16002KT 3000 HZ FEW018 26/26 Q1011 NOSIG

Hora: 01:50 (20:20 UTC)

Pronòstic

L'informe es va fer fa 3 hores i 20 minuts, a les 17:00 UTC
Pronòstic vàlid del 21 a les 18 UTC al 22 a les 03 UTC
Vent 4 kt del Sud
Visibilitat: 5000 m
Escasses núvols a una alçada de 1800 ft
calitja
Evolucionant progressivament
l' 21 a les 19 UTC al 21 a les 21 UTC
Visibilitat: 3000 m
calitja

TAF: VEBS 211700Z 2118/2203 17004KT 5000 HZ FEW018 BECMG 2119/2121 3000 HZ

Observacions i pronòstics meteorològics de més de 4000 aeroports (METAR i TAF).

Les estacions disponibles són els punts grocs i vermells al mapa.

Posi el ratolí al punt desitjat per veure el nom de l'estació.

Feu clic per veure les observacions i els pronòstics meteorològics.

Per canviar el mapa: feu clic els botons verds amb una creu de color negre per apropar; al botó verd amb un guió per allunyar la imatge; o en les fletxes verdes per a mapes adjacents.


METAR-TAF: